createdAt,value
2023-01-30T00:02:31.962Z,101201.16
2023-01-30T00:05:43.333Z,101202.38
2023-01-30T00:09:05.946Z,101195.97
2023-01-30T00:12:18.199Z,101199.72
2023-01-30T00:15:21.784Z,101202.59
2023-01-30T00:18:35.870Z,101199.19
2023-01-30T00:21:50.809Z,101195.97
2023-01-30T00:25:16.473Z,101188.53
2023-01-30T00:28:28.477Z,101186.06
2023-01-30T00:31:34.222Z,101181.44
2023-01-30T00:34:49.714Z,101182.59
2023-01-30T00:37:58.060Z,101183.81
2023-01-30T00:41:04.384Z,101184.50
2023-01-30T00:44:30.064Z,101184.41
2023-01-30T00:47:37.653Z,101184.25
2023-01-30T00:50:45.555Z,101185.56
2023-01-30T00:53:53.085Z,101179.88
2023-01-30T00:57:15.622Z,101167.50
2023-01-30T01:00:37.515Z,101166.94
2023-01-30T01:03:47.965Z,101162.56
2023-01-30T01:06:58.408Z,101160.28
2023-01-30T01:10:04.184Z,101152.28
2023-01-30T01:13:18.585Z,101162.50
2023-01-30T01:16:37.884Z,101148.75
2023-01-30T01:20:01.511Z,101150.72
2023-01-30T01:23:18.085Z,101145.38
2023-01-30T01:26:22.186Z,101142.13
2023-01-30T01:29:26.277Z,101146.78
2023-01-30T01:32:40.592Z,101134.13
2023-01-30T01:35:57.217Z,101135.72
2023-01-30T01:39:20.566Z,101132.09
2023-01-30T01:42:40.849Z,101126.53
2023-01-30T01:46:01.699Z,101118.09
2023-01-30T01:49:29.169Z,101116.53
2023-01-30T01:52:51.911Z,101110.81
2023-01-30T01:56:09.062Z,101106.78
2023-01-30T01:59:37.885Z,101097.75
2023-01-30T02:03:10.885Z,101093.84
2023-01-30T02:06:16.550Z,101090.00
2023-01-30T02:09:22.488Z,101082.44
2023-01-30T02:12:29.800Z,101072.00
2023-01-30T02:15:42.444Z,101066.88
2023-01-30T02:18:50.100Z,101063.63
2023-01-30T02:22:18.111Z,101067.28
2023-01-30T02:25:43.530Z,101058.84
2023-01-30T02:29:42.944Z,101054.19
2023-01-30T02:32:57.581Z,101055.50
2023-01-30T02:36:27.144Z,101044.06
2023-01-30T02:39:36.343Z,101041.00
2023-01-30T02:43:06.528Z,101035.06
2023-01-30T02:46:38.046Z,101031.91
2023-01-30T02:49:49.025Z,101028.13
2023-01-30T02:52:56.724Z,101016.13
2023-01-30T02:56:12.425Z,101013.06
2023-01-30T02:59:39.558Z,101007.13
2023-01-30T03:03:27.592Z,101000.13
2023-01-30T03:06:44.101Z,100997.53
2023-01-30T03:10:02.992Z,100993.44
2023-01-30T03:13:30.838Z,100997.88
2023-01-30T03:17:00.727Z,101000.22
2023-01-30T03:20:08.513Z,100995.16
2023-01-30T03:23:20.462Z,100993.94
2023-01-30T03:26:28.219Z,100986.97
2023-01-30T03:29:49.003Z,100991.63
2023-01-30T03:33:15.422Z,100987.81
2023-01-30T03:36:42.355Z,100982.88
2023-01-30T03:39:48.335Z,100972.66
2023-01-30T03:42:55.348Z,100977.16
2023-01-30T03:46:05.729Z,100966.75
2023-01-30T03:49:18.508Z,100977.81
2023-01-30T03:52:45.971Z,100978.84
2023-01-30T03:56:03.370Z,100965.50
2023-01-30T03:59:21.120Z,100972.59
2023-01-30T04:02:30.891Z,100977.81
2023-01-30T04:05:44.149Z,100967.66
2023-01-30T04:08:52.559Z,100964.00
2023-01-30T04:12:08.065Z,100962.75
2023-01-30T04:15:26.048Z,100952.28
2023-01-30T04:18:54.117Z,100951.31
2023-01-30T04:22:05.829Z,100956.44
2023-01-30T04:25:30.364Z,100954.16
2023-01-30T04:28:58.988Z,100949.63
2023-01-30T04:32:06.966Z,100941.63
2023-01-30T04:35:22.595Z,100945.34
2023-01-30T04:38:35.234Z,100927.94
2023-01-30T04:41:52.361Z,100927.34
2023-01-30T04:45:10.932Z,100927.53
2023-01-30T04:48:26.477Z,100911.38
2023-01-30T04:51:38.893Z,100919.56
2023-01-30T04:54:46.898Z,100918.75
2023-01-30T04:58:13.976Z,100912.19
2023-01-30T05:01:50.281Z,100918.94
2023-01-30T05:05:08.126Z,100910.09
2023-01-30T05:08:26.466Z,100902.75
2023-01-30T05:11:51.798Z,100906.81
2023-01-30T05:15:21.605Z,100904.75
2023-01-30T05:18:36.919Z,100907.25
2023-01-30T05:22:00.792Z,100912.81
2023-01-30T05:25:15.771Z,100903.81
2023-01-30T05:28:26.933Z,100907.03
2023-01-30T05:31:36.680Z,100904.34
2023-01-30T05:34:49.057Z,100896.41
2023-01-30T05:38:09.491Z,100901.09
2023-01-30T05:41:16.904Z,100894.53
2023-01-30T05:44:42.545Z,100886.34
2023-01-30T05:48:05.985Z,100888.63
2023-01-30T05:51:40.870Z,100890.47
2023-01-30T05:55:03.649Z,100897.94
2023-01-30T05:58:27.368Z,100892.91
2023-01-30T06:01:48.444Z,100896.97
2023-01-30T06:05:12.330Z,100897.63
2023-01-30T06:08:27.662Z,100896.41
2023-01-30T06:11:30.858Z,100900.28
2023-01-30T06:14:56.363Z,100894.13
2023-01-30T06:18:25.722Z,100892.72
2023-01-30T06:21:51.952Z,100896.44
2023-01-30T06:25:12.966Z,100882.16
2023-01-30T06:28:24.599Z,100896.72
2023-01-30T06:31:37.240Z,100898.72
2023-01-30T06:34:40.549Z,100897.97
2023-01-30T06:37:48.534Z,100891.66
2023-01-30T06:40:58.509Z,100869.16
2023-01-30T06:44:06.683Z,100872.81
2023-01-30T06:47:20.666Z,100873.44
2023-01-30T06:50:26.832Z,100865.47
2023-01-30T06:53:36.682Z,100874.25
2023-01-30T06:56:40.580Z,100868.53
2023-01-30T06:59:54.129Z,100871.38
2023-01-30T07:03:20.421Z,100863.56
2023-01-30T07:06:40.040Z,100861.53
2023-01-30T07:10:07.888Z,100858.81
2023-01-30T07:13:27.242Z,100862.75
2023-01-30T07:16:37.224Z,100852.50
2023-01-30T07:19:56.509Z,100854.22
2023-01-30T07:23:19.667Z,100860.97
2023-01-30T07:26:51.012Z,100850.09
2023-01-30T07:30:21.668Z,100842.31
2023-01-30T07:33:41.703Z,100849.91
2023-01-30T07:37:03.962Z,100852.69
2023-01-30T07:40:36.314Z,100845.56
2023-01-30T07:44:05.442Z,100851.03
2023-01-30T07:47:25.524Z,100839.47
2023-01-30T07:55:37.567Z,100833.97
2023-01-30T07:59:44.641Z,100827.91
2023-01-30T08:06:55.611Z,100829.44
2023-01-30T08:09:59.195Z,100826.34
2023-01-30T08:13:09.201Z,100813.94
2023-01-30T08:16:26.952Z,100787.84
2023-01-30T08:19:49.835Z,100761.00
2023-01-30T08:22:54.660Z,100759.09
2023-01-30T08:26:04.204Z,100750.88
2023-01-30T08:29:08.072Z,100751.91
2023-01-30T08:32:11.424Z,100756.72
2023-01-30T08:35:22.988Z,100753.31
2023-01-30T08:38:46.378Z,100764.50
2023-01-30T08:41:57.307Z,100765.78
2023-01-30T08:56:25.630Z,100745.06
2023-01-30T08:59:46.735Z,100759.69
2023-01-30T09:02:58.154Z,100759.31
2023-01-30T09:06:16.561Z,100755.31
2023-01-30T09:09:38.200Z,100749.59
2023-01-30T09:13:53.603Z,100745.16
2023-01-30T09:17:04.761Z,100742.28
2023-01-30T09:20:10.612Z,100737.09
2023-01-30T09:23:19.779Z,100728.13
2023-01-30T09:26:38.356Z,100720.31
2023-01-30T09:30:03.214Z,100710.31
2023-01-30T09:33:06.481Z,100710.91
2023-01-30T09:36:10.937Z,100704.97
2023-01-30T09:39:21.473Z,100702.16
2023-01-30T10:08:17.631Z,100655.50
2023-01-30T10:12:38.051Z,100642.06
2023-01-30T10:20:54.629Z,100634.53
2023-01-30T10:24:25.012Z,100631.47
2023-01-30T10:34:17.746Z,100594.03
2023-01-30T10:54:42.460Z,100537.47
2023-01-30T10:58:26.888Z,100534.06
2023-01-30T11:01:56.100Z,100529.53
2023-01-30T11:05:27.618Z,100522.22
2023-01-30T11:08:35.403Z,100515.38
2023-01-30T11:11:56.359Z,100506.94
2023-01-30T11:15:16.508Z,100498.97
2023-01-30T11:22:27.260Z,100488.53
2023-01-30T11:25:32.382Z,100473.25
2023-01-30T11:28:46.941Z,100480.88
2023-01-30T11:32:07.275Z,100473.50
2023-01-30T11:35:24.953Z,100477.63
2023-01-30T11:38:40.893Z,100462.94
2023-01-30T11:42:10.865Z,100448.97
2023-01-30T11:45:36.181Z,100440.53
2023-01-30T11:49:31.879Z,100438.91
2023-01-30T11:52:33.408Z,100435.81
2023-01-30T11:56:19.533Z,100429.50
2023-01-30T11:59:47.660Z,100428.09
2023-01-30T12:03:42.055Z,100429.78
2023-01-30T12:07:26.988Z,100421.84
2023-01-30T12:15:31.851Z,100407.47
2023-01-30T12:18:57.790Z,100412.59
2023-01-30T12:22:13.239Z,100393.50
2023-01-30T12:25:45.183Z,100364.50
2023-01-30T12:29:18.640Z,100348.53
2023-01-30T12:32:35.264Z,100342.06
2023-01-30T12:36:05.893Z,100332.97
2023-01-30T12:39:36.018Z,100332.50
2023-01-30T12:42:58.325Z,100333.88
2023-01-30T12:46:37.184Z,100334.75
2023-01-30T12:49:59.130Z,100327.41
2023-01-30T12:53:22.761Z,100351.28
2023-01-30T12:56:52.571Z,100338.66
2023-01-30T13:01:22.914Z,100331.94
2023-01-30T13:05:55.651Z,100318.09
2023-01-30T13:09:50.753Z,100320.09
2023-01-30T13:13:20.195Z,100309.84
2023-01-30T13:16:53.661Z,100286.63
2023-01-30T13:20:14.085Z,100278.91
2023-01-30T13:23:24.190Z,100280.09
2023-01-30T13:26:43.988Z,100279.09
2023-01-30T13:30:09.533Z,100279.91
2023-01-30T13:33:36.016Z,100285.97
2023-01-30T13:37:22.546Z,100282.41
2023-01-30T13:41:00.588Z,100276.25
2023-01-30T13:44:40.713Z,100277.47
2023-01-30T13:48:19.901Z,100277.56
2023-01-30T13:51:44.158Z,100269.72
2023-01-30T13:55:36.461Z,100272.03
2023-01-30T14:00:15.599Z,100260.53
2023-01-30T14:03:45.038Z,100262.53
2023-01-30T14:07:07.490Z,100249.53
2023-01-30T14:10:49.605Z,100253.16
2023-01-30T14:14:05.297Z,100249.88
2023-01-30T14:17:22.161Z,100255.38
2023-01-30T14:20:49.150Z,100262.84
2023-01-30T14:24:07.328Z,100269.06
2023-01-30T14:27:34.002Z,100268.44
2023-01-30T14:30:59.372Z,100281.16
2023-01-30T14:34:48.220Z,100273.47
2023-01-30T14:38:25.605Z,100280.09
2023-01-30T14:41:38.695Z,100289.00
2023-01-30T14:45:02.120Z,100285.03
2023-01-30T14:48:41.698Z,100284.22
2023-01-30T14:52:02.355Z,100281.41
2023-01-30T14:55:30.517Z,100282.22
2023-01-30T14:58:37.853Z,100279.22
2023-01-30T15:02:09.716Z,100271.34
2023-01-30T15:05:20.415Z,100272.84
2023-01-30T15:08:27.713Z,100277.53
2023-01-30T15:11:35.662Z,100267.06
2023-01-30T15:14:54.168Z,100281.81
2023-01-30T15:18:24.566Z,100283.63
2023-01-30T15:21:41.028Z,100283.44
2023-01-30T15:25:15.940Z,100278.34
2023-01-30T15:28:25.662Z,100264.63
2023-01-30T15:31:35.395Z,100264.38
2023-01-30T15:34:56.404Z,100264.94
2023-01-30T15:38:15.377Z,100283.91
2023-01-30T15:41:44.100Z,100288.69
2023-01-30T15:45:21.319Z,100295.59
2023-01-30T15:48:42.067Z,100295.28
2023-01-30T15:51:52.298Z,100283.22
2023-01-30T15:55:02.487Z,100288.88
2023-01-30T15:58:24.138Z,100267.72
2023-01-30T16:01:55.297Z,100288.31
2023-01-30T16:05:27.381Z,100297.72
2023-01-30T16:08:37.232Z,100304.31
2023-01-30T16:12:00.177Z,100295.78
2023-01-30T16:15:26.258Z,100286.94
2023-01-30T16:18:52.813Z,100308.47
2023-01-30T16:22:22.364Z,100297.59
2023-01-30T16:25:34.633Z,100301.81
2023-01-30T16:28:56.105Z,100304.03
2023-01-30T16:32:18.672Z,100319.25
2023-01-30T16:35:27.187Z,100333.19
2023-01-30T16:38:38.796Z,100321.44
2023-01-30T16:41:55.667Z,100311.03
2023-01-30T16:45:32.733Z,100323.25
2023-01-30T16:48:40.593Z,100321.91
2023-01-30T16:51:47.562Z,100328.47
2023-01-30T16:55:04.857Z,100315.66
2023-01-30T16:58:29.719Z,100319.56
2023-01-30T17:01:41.595Z,100307.88
2023-01-30T17:04:44.978Z,100314.53
2023-01-30T17:07:50.703Z,100316.53
2023-01-30T17:11:02.249Z,100304.41
2023-01-30T17:14:31.427Z,100288.19
2023-01-30T17:17:39.283Z,100299.25
2023-01-30T17:20:48.248Z,100292.50
2023-01-30T17:24:01.636Z,100294.38
2023-01-30T17:27:09.498Z,100280.53
2023-01-30T17:30:17.959Z,100284.47
2023-01-30T17:33:21.933Z,100276.38
2023-01-30T17:36:30.891Z,100285.72
2023-01-30T17:39:47.187Z,100291.06
2023-01-30T17:43:03.917Z,100289.63
2023-01-30T17:47:11.828Z,100279.16
2023-01-30T17:50:39.102Z,100278.53
2023-01-30T17:53:59.787Z,100278.41
2023-01-30T17:57:27.889Z,100275.63
2023-01-30T18:00:51.800Z,100282.03
2023-01-30T18:04:13.921Z,100285.31
2023-01-30T18:07:17.151Z,100285.72
2023-01-30T18:10:24.873Z,100293.28
2023-01-30T18:13:35.648Z,100290.16
2023-01-30T18:16:45.364Z,100297.69
2023-01-30T18:20:09.757Z,100304.22
2023-01-30T18:23:30.166Z,100283.22
2023-01-30T18:26:47.234Z,100294.66
2023-01-30T18:29:50.385Z,100289.41
2023-01-30T18:32:57.296Z,100289.47
2023-01-30T18:36:12.901Z,100306.22
2023-01-30T18:39:32.792Z,100306.25
2023-01-30T18:42:35.904Z,100306.38
2023-01-30T18:45:39.764Z,100301.94
2023-01-30T18:48:52.326Z,100292.53
2023-01-30T18:51:56.592Z,100303.69
2023-01-30T18:55:02.229Z,100300.50
2023-01-30T18:58:09.021Z,100296.50
2023-01-30T19:01:22.109Z,100293.81
2023-01-30T19:04:25.763Z,100297.50
2023-01-30T19:07:32.834Z,100295.91
2023-01-30T19:10:53.487Z,100299.81
2023-01-30T19:14:15.436Z,100304.19
2023-01-30T19:17:38.597Z,100296.38
2023-01-30T19:21:04.355Z,100294.03
2023-01-30T19:24:12.327Z,100295.34
2023-01-30T19:27:16.401Z,100297.81
2023-01-30T19:30:19.773Z,100283.09
2023-01-30T19:33:27.059Z,100289.56
2023-01-30T19:36:34.755Z,100298.44
2023-01-30T19:39:39.043Z,100284.91
2023-01-30T19:43:10.357Z,100288.88
2023-01-30T19:46:20.594Z,100304.03
2023-01-30T19:49:36.628Z,100305.63
2023-01-30T19:53:05.458Z,100304.09
2023-01-30T19:56:27.440Z,100312.97
2023-01-30T19:59:49.575Z,100307.25
2023-01-30T20:03:13.563Z,100307.31
2023-01-30T20:06:33.756Z,100304.03
2023-01-30T20:09:57.521Z,100282.88
2023-01-30T20:13:21.581Z,100285.97
2023-01-30T20:16:43.429Z,100285.94
2023-01-30T20:20:03.498Z,100282.53
2023-01-30T20:23:25.441Z,100288.34
2023-01-30T20:26:39.731Z,100282.81
2023-01-30T20:30:03.501Z,100278.06
2023-01-30T20:33:24.708Z,100277.31
2023-01-30T20:36:44.302Z,100284.69
2023-01-30T20:40:11.321Z,100281.66
2023-01-30T20:43:35.381Z,100282.34
2023-01-30T20:46:56.380Z,100283.72
2023-01-30T20:50:20.605Z,100275.00
2023-01-30T20:53:27.638Z,100273.22
2023-01-30T20:56:34.487Z,100278.13
2023-01-30T20:59:45.286Z,100278.09
2023-01-30T21:03:05.970Z,100269.38
2023-01-30T21:06:42.259Z,100272.97
2023-01-30T21:09:55.579Z,100272.75
2023-01-30T21:13:15.927Z,100268.72
2023-01-30T21:16:41.157Z,100273.69
2023-01-30T21:19:59.054Z,100274.91
2023-01-30T21:23:21.059Z,100294.31
2023-01-30T21:26:27.346Z,100305.50
2023-01-30T21:29:31.215Z,100312.38
2023-01-30T21:32:54.216Z,100299.16
2023-01-30T21:36:04.800Z,100290.47
2023-01-30T21:39:32.574Z,100285.66
2023-01-30T21:43:00.567Z,100287.19
2023-01-30T21:46:10.903Z,100285.41
2023-01-30T21:49:34.210Z,100298.00
2023-01-30T21:52:50.334Z,100290.28
2023-01-30T21:56:07.169Z,100292.97
2023-01-30T21:59:14.000Z,100290.03
2023-01-30T22:02:17.739Z,100287.09
2023-01-30T22:05:36.735Z,100291.91
2023-01-30T22:08:54.215Z,100299.06
2023-01-30T22:12:16.073Z,100303.44
2023-01-30T22:15:34.110Z,100310.31
2023-01-30T22:18:37.798Z,100298.38
2023-01-30T22:21:48.696Z,100306.41
2023-01-30T22:24:57.076Z,100288.94
2023-01-30T22:27:59.930Z,100286.25
2023-01-30T22:31:18.223Z,100290.34
2023-01-30T22:34:24.566Z,100270.09
2023-01-30T22:37:34.279Z,100267.75
2023-01-30T22:40:37.424Z,100263.34
2023-01-30T22:43:44.908Z,100274.28
2023-01-30T22:46:52.503Z,100260.25
2023-01-30T22:50:08.249Z,100267.59
2023-01-30T22:53:29.045Z,100266.69
2023-01-30T22:56:56.165Z,100265.25
2023-01-30T23:00:12.977Z,100269.47
2023-01-30T23:03:43.085Z,100269.25
2023-01-30T23:07:05.653Z,100259.38
2023-01-30T23:10:27.932Z,100258.94
2023-01-30T23:13:54.618Z,100259.84
2023-01-30T23:17:33.639Z,100251.66
2023-01-30T23:20:38.279Z,100246.22
2023-01-30T23:24:03.032Z,100247.31
2023-01-30T23:27:22.003Z,100248.88
2023-01-30T23:30:39.021Z,100254.00
2023-01-30T23:34:04.855Z,100255.47
2023-01-30T23:37:42.635Z,100249.56
2023-01-30T23:40:56.885Z,100233.22
2023-01-30T23:44:13.178Z,100261.00
2023-01-30T23:47:32.931Z,100269.41
2023-01-30T23:50:55.832Z,100256.41
2023-01-30T23:54:13.886Z,100256.22
2023-01-30T23:57:43.865Z,100241.88
